createdAt,value
2018-08-28T00:00:24.153Z,6.20
2018-08-28T00:02:53.955Z,7.00
2018-08-28T00:05:23.765Z,7.00
2018-08-28T00:07:53.573Z,7.67
2018-08-28T00:10:23.274Z,7.27
2018-08-28T00:12:52.997Z,7.60
2018-08-28T00:15:22.801Z,7.70
2018-08-28T00:17:52.431Z,6.57
2018-08-28T00:20:22.132Z,7.47
2018-08-28T00:22:51.877Z,7.53
2018-08-28T00:25:21.649Z,7.47
2018-08-28T00:27:51.325Z,6.97
2018-08-28T00:30:21.032Z,6.83
2018-08-28T00:32:50.690Z,6.60
2018-08-28T00:35:20.523Z,6.60
2018-08-28T00:37:50.223Z,6.57
2018-08-28T00:40:20.085Z,7.57
2018-08-28T00:42:50.028Z,6.00
2018-08-28T00:45:20.223Z,7.53
2018-08-28T00:47:50.768Z,7.97
2018-08-28T00:50:20.447Z,7.33
2018-08-28T00:52:50.323Z,8.07
2018-08-28T00:55:19.990Z,7.80
2018-08-28T00:57:49.734Z,8.03
2018-08-28T01:00:19.390Z,8.10
2018-08-28T01:02:49.118Z,8.00
2018-08-28T01:05:20.746Z,7.57
2018-08-28T01:07:50.930Z,7.30
2018-08-28T01:10:20.586Z,7.73
2018-08-28T01:12:50.270Z,8.07
2018-08-28T01:15:20.062Z,8.10
2018-08-28T01:17:49.769Z,7.60
2018-08-28T01:20:19.478Z,7.20
2018-08-28T01:22:49.282Z,7.43
2018-08-28T01:25:19.107Z,7.07
2018-08-28T01:27:49.095Z,7.13
2018-08-28T01:30:36.198Z,7.47
2018-08-28T01:33:07.054Z,8.17
2018-08-28T01:35:36.714Z,8.33
2018-08-28T01:38:06.388Z,7.90
2018-08-28T01:40:36.171Z,8.30
2018-08-28T01:43:11.171Z,8.40
2018-08-28T01:45:40.857Z,8.53
2018-08-28T01:48:10.526Z,7.93
2018-08-28T01:50:40.915Z,8.83
2018-08-28T01:53:10.816Z,8.77
2018-08-28T01:55:40.422Z,9.30
2018-08-28T01:58:10.212Z,8.33
2018-08-28T02:00:39.792Z,8.43
2018-08-28T02:03:09.574Z,7.93
2018-08-28T02:05:39.518Z,7.77
2018-08-28T02:08:09.078Z,8.30
2018-08-28T02:10:38.842Z,7.80
2018-08-28T02:13:08.563Z,7.57
2018-08-28T02:15:38.227Z,7.27
2018-08-28T02:18:08.053Z,6.63
2018-08-28T02:20:37.688Z,7.60
2018-08-28T02:23:07.448Z,7.63
2018-08-28T02:25:37.230Z,7.07
2018-08-28T02:28:07.138Z,7.90
2018-08-28T02:30:36.914Z,7.87
2018-08-28T02:33:06.660Z,8.03
2018-08-28T02:35:36.369Z,8.40
2018-08-28T02:38:06.036Z,8.10
2018-08-28T02:40:35.834Z,7.70
2018-08-28T02:43:05.696Z,8.23
2018-08-28T02:45:35.411Z,8.30
2018-08-28T02:48:05.245Z,8.17
2018-08-28T02:50:34.929Z,7.70
2018-08-28T02:53:05.025Z,7.80
2018-08-28T02:55:35.321Z,7.57
2018-08-28T02:58:04.985Z,7.67
2018-08-28T03:00:34.779Z,8.77
2018-08-28T03:03:04.514Z,8.00
2018-08-28T03:05:34.146Z,7.30
2018-08-28T03:08:03.935Z,7.57
2018-08-28T03:10:33.707Z,7.70
2018-08-28T03:13:03.392Z,6.97
2018-08-28T03:15:33.295Z,7.67
2018-08-28T03:18:02.902Z,8.90
2018-08-28T03:20:32.916Z,8.80
2018-08-28T03:23:02.746Z,9.10
2018-08-28T03:25:32.516Z,8.13
2018-08-28T03:28:02.417Z,7.70
2018-08-28T03:30:31.979Z,8.77
2018-08-28T03:33:01.727Z,9.07
2018-08-28T03:35:31.410Z,7.97
2018-08-28T03:38:01.067Z,8.07
2018-08-28T03:40:30.815Z,7.73
2018-08-28T03:43:00.446Z,7.70
2018-08-28T03:45:30.134Z,8.47
2018-08-28T03:47:59.972Z,8.43
2018-08-28T03:50:30.306Z,8.67
2018-08-28T03:53:00.122Z,9.03
2018-08-28T03:55:29.996Z,9.00
2018-08-28T03:57:59.676Z,10.00
2018-08-28T04:00:29.346Z,9.10
2018-08-28T04:02:59.035Z,9.67
2018-08-28T04:05:28.711Z,10.43
2018-08-28T04:07:58.573Z,9.67
2018-08-28T04:10:28.929Z,9.50
2018-08-28T04:12:58.693Z,9.07
2018-08-28T04:15:28.481Z,9.03
2018-08-28T04:17:58.055Z,7.90
2018-08-28T04:20:27.804Z,7.67
2018-08-28T04:22:57.582Z,8.63
2018-08-28T04:25:27.255Z,9.03
2018-08-28T04:27:56.958Z,8.13
2018-08-28T04:30:26.732Z,8.57
2018-08-28T04:32:56.598Z,8.83
2018-08-28T04:35:26.308Z,9.00
2018-08-28T04:37:56.017Z,8.93
2018-08-28T04:40:25.837Z,8.97
2018-08-28T04:42:55.627Z,8.93
2018-08-28T04:45:25.193Z,8.40
2018-08-28T04:47:55.088Z,9.27
2018-08-28T04:50:24.847Z,7.13
2018-08-28T04:52:54.645Z,8.67
2018-08-28T04:55:24.302Z,8.00
2018-08-28T04:57:54.053Z,9.00
2018-08-28T05:00:23.797Z,6.60
2018-08-28T05:02:53.521Z,7.87
2018-08-28T05:05:23.195Z,6.87
2018-08-28T05:07:53.553Z,8.20
2018-08-28T05:10:23.369Z,7.90
2018-08-28T05:12:52.953Z,8.17
2018-08-28T05:15:22.678Z,8.63
2018-08-28T05:17:52.395Z,8.70
2018-08-28T05:20:22.239Z,7.90
2018-08-28T05:22:51.939Z,7.57
2018-08-28T05:25:21.857Z,6.73
2018-08-28T05:27:51.725Z,6.77
2018-08-28T05:30:22.189Z,7.50
2018-08-28T05:32:52.055Z,7.90
2018-08-28T05:35:21.799Z,6.87
2018-08-28T05:37:51.587Z,6.97
2018-08-28T05:40:22.196Z,7.30
2018-08-28T05:42:51.931Z,6.23
2018-08-28T05:45:21.667Z,6.60
2018-08-28T05:47:51.407Z,6.63
2018-08-28T05:50:21.339Z,6.90
2018-08-28T05:52:51.056Z,6.70
2018-08-28T05:55:20.908Z,6.67
2018-08-28T05:57:50.787Z,5.53
2018-08-28T06:00:20.692Z,6.33
2018-08-28T06:02:50.524Z,5.53
2018-08-28T06:05:20.358Z,6.60
2018-08-28T06:07:50.208Z,6.60
2018-08-28T06:10:19.860Z,5.50
2018-08-28T06:12:50.060Z,6.40
2018-08-28T06:15:19.776Z,6.07
2018-08-28T06:17:49.655Z,6.30
2018-08-28T06:20:19.438Z,5.90
2018-08-28T06:22:49.229Z,6.17
2018-08-28T06:25:18.989Z,5.87
2018-08-28T06:27:48.689Z,5.63
2018-08-28T06:30:18.460Z,5.83
2018-08-28T06:32:48.315Z,5.73
2018-08-28T06:35:18.074Z,6.10
2018-08-28T06:37:47.835Z,5.80
2018-08-28T06:40:17.637Z,5.77
2018-08-28T06:42:47.401Z,5.40
2018-08-28T06:45:17.220Z,5.87
2018-08-28T06:47:46.892Z,5.47
2018-08-28T06:50:16.561Z,5.57
2018-08-28T06:52:46.287Z,5.43
2018-08-28T06:55:16.110Z,5.70
2018-08-28T06:57:45.784Z,5.43
2018-08-28T07:00:15.475Z,5.73
2018-08-28T07:02:45.229Z,5.40
2018-08-28T07:05:16.143Z,5.57
2018-08-28T07:07:45.961Z,5.20
2018-08-28T07:10:15.949Z,5.60
2018-08-28T07:12:45.691Z,5.43
2018-08-28T07:15:15.351Z,4.80
2018-08-28T07:17:44.938Z,5.13
2018-08-28T07:20:14.721Z,5.03
2018-08-28T07:22:44.591Z,5.63
2018-08-28T07:25:14.338Z,6.03
2018-08-28T07:27:44.026Z,5.10
2018-08-28T07:30:13.914Z,5.27
2018-08-28T07:32:43.720Z,5.20
2018-08-28T07:35:13.628Z,4.67
2018-08-28T07:37:43.466Z,4.47
2018-08-28T07:40:13.348Z,5.30
2018-08-28T07:42:42.987Z,4.60
2018-08-28T07:45:12.758Z,5.03
2018-08-28T07:47:42.402Z,4.37
2018-08-28T07:50:12.436Z,4.27
2018-08-28T07:52:42.154Z,3.80
2018-08-28T07:55:11.790Z,3.90
2018-08-28T07:57:41.525Z,4.67
2018-08-28T08:00:11.256Z,3.60
2018-08-28T08:02:40.944Z,4.17
2018-08-28T08:05:10.740Z,4.50
2018-08-28T08:07:40.564Z,4.40
2018-08-28T08:10:10.376Z,4.37
2018-08-28T08:12:40.057Z,4.30
2018-08-28T08:15:09.661Z,4.27
2018-08-28T08:17:39.581Z,3.87
2018-08-28T08:20:09.343Z,4.10
2018-08-28T08:22:39.083Z,4.27
2018-08-28T08:25:08.987Z,4.07
2018-08-28T08:30:21.229Z,4.70
2018-08-28T08:32:51.051Z,4.47
2018-08-28T08:35:20.920Z,4.43
2018-08-28T08:37:50.786Z,4.77
2018-08-28T08:40:20.455Z,4.30
2018-08-28T08:42:50.126Z,4.03
2018-08-28T08:45:19.954Z,4.60
2018-08-28T08:47:49.623Z,4.23
2018-08-28T08:50:19.542Z,4.40
2018-08-28T08:52:49.358Z,4.10
2018-08-28T08:55:19.110Z,4.60
2018-08-28T08:57:49.006Z,4.70
2018-08-28T09:00:18.736Z,4.00
2018-08-28T09:02:48.558Z,4.13
2018-08-28T09:05:18.228Z,4.07
2018-08-28T09:07:48.023Z,4.17
2018-08-28T09:10:17.556Z,3.80
2018-08-28T09:12:47.437Z,4.10
2018-08-28T09:15:17.221Z,4.80
2018-08-28T09:17:47.128Z,4.13
2018-08-28T09:20:16.831Z,4.90
2018-08-28T09:22:46.517Z,5.00
2018-08-28T09:25:16.091Z,4.93
2018-08-28T09:27:45.801Z,5.30
2018-08-28T09:30:15.419Z,5.17
2018-08-28T09:32:45.103Z,5.17
2018-08-28T09:35:14.824Z,5.00
2018-08-28T09:37:44.519Z,5.07
2018-08-28T09:40:14.144Z,4.70
2018-08-28T09:42:43.895Z,5.07
2018-08-28T09:45:13.575Z,5.07
2018-08-28T09:47:43.295Z,5.43
2018-08-28T09:50:13.167Z,5.73
2018-08-28T09:52:42.846Z,5.63
2018-08-28T09:55:12.577Z,5.37
2018-08-28T09:57:42.357Z,4.93
2018-08-28T10:00:17.252Z,5.10
2018-08-28T10:02:47.180Z,5.87
2018-08-28T10:05:16.909Z,5.60
2018-08-28T10:07:46.769Z,4.83
2018-08-28T10:10:16.415Z,5.37
2018-08-28T10:12:46.172Z,5.07
2018-08-28T10:15:15.858Z,5.50
2018-08-28T10:17:45.541Z,5.97
2018-08-28T10:20:15.169Z,5.97
2018-08-28T10:22:45.071Z,6.17
2018-08-28T10:25:14.731Z,6.87
2018-08-28T10:27:44.731Z,6.13
2018-08-28T10:30:14.701Z,6.10
2018-08-28T10:32:44.355Z,6.07
2018-08-28T10:35:14.091Z,5.93
2018-08-28T10:37:43.844Z,5.77
2018-08-28T10:40:13.617Z,5.97
2018-08-28T10:42:43.507Z,5.10
2018-08-28T10:45:13.435Z,6.07
2018-08-28T10:47:43.037Z,5.77
2018-08-28T10:50:12.740Z,6.33
2018-08-28T10:52:42.655Z,5.73
2018-08-28T10:55:12.386Z,6.10
2018-08-28T10:57:42.126Z,6.13
2018-08-28T11:00:12.050Z,6.20
2018-08-28T11:02:41.845Z,6.43
2018-08-28T11:05:11.718Z,6.50
2018-08-28T11:07:41.494Z,6.10
2018-08-28T11:10:11.512Z,6.00
2018-08-28T11:12:41.212Z,5.80
2018-08-28T11:15:11.099Z,5.47
2018-08-28T11:17:40.924Z,6.07
2018-08-28T11:20:10.794Z,5.10
2018-08-28T11:22:40.576Z,5.30
2018-08-28T11:25:10.761Z,5.40
2018-08-28T11:27:40.566Z,5.60
2018-08-28T11:30:10.395Z,5.37
2018-08-28T11:32:40.297Z,4.87
2018-08-28T11:35:10.055Z,5.00
2018-08-28T11:37:39.903Z,5.30
2018-08-28T11:40:09.626Z,4.90
2018-08-28T11:42:39.381Z,4.67
2018-08-28T11:45:09.483Z,4.73
2018-08-28T11:47:39.377Z,5.53
2018-08-28T11:50:09.604Z,5.60
2018-08-28T11:52:39.397Z,6.50
2018-08-28T11:55:09.283Z,6.87
2018-08-28T11:57:39.468Z,6.67
2018-08-28T12:00:09.358Z,5.53
2018-08-28T12:02:39.155Z,5.50
2018-08-28T12:05:08.823Z,5.10
2018-08-28T12:07:38.471Z,4.97
2018-08-28T12:10:09.355Z,5.63
2018-08-28T12:12:39.119Z,4.73
2018-08-28T12:15:09.017Z,5.30
2018-08-28T12:17:39.051Z,5.73
2018-08-28T12:20:10.101Z,5.60
2018-08-28T12:22:39.887Z,6.47
2018-08-28T12:25:10.208Z,5.70
2018-08-28T12:27:39.859Z,5.10
2018-08-28T12:30:11.430Z,5.60
2018-08-28T12:32:41.141Z,6.20
2018-08-28T12:35:10.804Z,6.10
2018-08-28T12:37:40.561Z,6.20
2018-08-28T12:40:10.317Z,6.47
2018-08-28T12:42:40.192Z,6.00
2018-08-28T12:45:09.992Z,5.90
2018-08-28T12:47:40.235Z,5.87
2018-08-28T12:50:10.943Z,5.40
2018-08-28T12:52:40.604Z,5.53
2018-08-28T12:55:10.375Z,5.60
2018-08-28T12:57:40.109Z,5.70
2018-08-28T13:00:10.001Z,5.40
2018-08-28T13:02:39.879Z,5.17
2018-08-28T13:05:09.663Z,4.70
2018-08-28T13:07:39.566Z,5.23
2018-08-28T13:10:09.660Z,5.30
2018-08-28T13:12:39.800Z,5.30
2018-08-28T13:15:09.704Z,4.77
2018-08-28T13:17:39.587Z,6.00
2018-08-28T13:20:09.469Z,5.33
2018-08-28T13:22:39.434Z,5.43
2018-08-28T13:25:10.013Z,5.63
2018-08-28T13:27:41.059Z,5.63
2018-08-28T13:30:11.162Z,5.63
2018-08-28T13:32:40.884Z,5.97
2018-08-28T13:35:11.518Z,5.60
2018-08-28T13:37:41.720Z,5.37
2018-08-28T13:40:12.575Z,5.60
2018-08-28T13:42:42.338Z,5.30
2018-08-28T13:45:12.412Z,5.40
2018-08-28T13:47:42.210Z,5.60
2018-08-28T13:50:12.850Z,5.67
2018-08-28T13:52:42.682Z,5.13
2018-08-28T13:55:12.900Z,5.80
2018-08-28T13:57:42.903Z,6.20
2018-08-28T14:00:12.898Z,5.57
2018-08-28T14:02:42.951Z,6.30
2018-08-28T14:05:12.728Z,6.07
2018-08-28T14:07:43.086Z,5.77
2018-08-28T14:10:13.194Z,5.50
2018-08-28T14:12:43.329Z,6.30
2018-08-28T14:15:13.932Z,5.67
2018-08-28T14:17:43.905Z,5.77
2018-08-28T14:20:14.185Z,5.30
2018-08-28T14:22:45.262Z,5.80
2018-08-28T14:25:15.663Z,5.23
2018-08-28T14:27:45.316Z,5.23
2018-08-28T14:30:15.970Z,5.40
2018-08-28T14:32:45.755Z,6.07
2018-08-28T14:35:15.541Z,5.63
2018-08-28T14:37:45.308Z,5.87
2018-08-28T14:40:15.027Z,5.43
2018-08-28T14:42:46.549Z,5.80
2018-08-28T14:45:16.538Z,5.47
2018-08-28T14:47:46.453Z,5.63
2018-08-28T14:50:16.332Z,5.57
2018-08-28T14:52:46.428Z,5.90
2018-08-28T14:55:16.467Z,5.40
2018-08-28T14:57:49.590Z,5.70
2018-08-28T15:00:19.530Z,6.67
2018-08-28T15:02:50.739Z,6.57
2018-08-28T15:05:20.405Z,7.20
2018-08-28T15:07:50.451Z,6.93
2018-08-28T15:10:20.681Z,6.73
2018-08-28T15:12:51.051Z,7.27
2018-08-28T15:15:21.078Z,7.00
2018-08-28T15:17:51.959Z,6.97
2018-08-28T15:20:22.660Z,6.53
2018-08-28T15:22:52.442Z,6.37
2018-08-28T15:25:22.526Z,5.37
2018-08-28T15:27:52.906Z,6.23
2018-08-28T15:30:22.662Z,5.70
2018-08-28T15:32:53.283Z,6.00
2018-08-28T15:35:24.156Z,5.33
2018-08-28T15:37:54.840Z,5.60
2018-08-28T15:40:24.756Z,5.73
2018-08-28T15:42:55.002Z,6.27
2018-08-28T15:45:25.082Z,5.17
2018-08-28T15:47:55.170Z,6.43
2018-08-28T15:50:25.307Z,5.23
2018-08-28T15:52:55.908Z,5.07
2018-08-28T15:55:25.986Z,5.40
2018-08-28T15:57:55.949Z,5.23
2018-08-28T16:00:26.527Z,5.57
2018-08-28T16:02:56.411Z,5.37
2018-08-28T16:05:26.286Z,5.50
2018-08-28T16:07:56.147Z,5.40
2018-08-28T16:10:25.895Z,5.83
2018-08-28T16:12:55.601Z,5.40
2018-08-28T16:15:25.516Z,5.43
2018-08-28T16:17:56.399Z,5.33
2018-08-28T16:20:26.629Z,5.50
2018-08-28T16:23:02.768Z,4.80
2018-08-28T16:25:34.647Z,4.77
2018-08-28T16:28:04.444Z,5.40
2018-08-28T16:30:34.838Z,5.47
2018-08-28T16:33:04.652Z,5.23
2018-08-28T16:35:34.882Z,5.20
2018-08-28T16:38:04.653Z,5.20
2018-08-28T16:40:34.612Z,5.53
2018-08-28T16:43:04.414Z,5.50
2018-08-28T16:45:34.360Z,5.70
2018-08-28T16:48:04.110Z,6.40
2018-08-28T16:50:34.170Z,6.30
2018-08-28T16:53:05.208Z,6.50
2018-08-28T16:55:35.240Z,6.20
2018-08-28T16:58:05.154Z,5.20
2018-08-28T17:00:34.905Z,6.60
2018-08-28T17:03:04.744Z,6.33
2018-08-28T17:05:34.626Z,5.83
2018-08-28T17:08:04.569Z,5.60
2018-08-28T17:10:34.430Z,5.87
2018-08-28T17:13:04.272Z,5.40
2018-08-28T17:15:34.053Z,5.80
2018-08-28T17:18:03.799Z,6.00
2018-08-28T17:20:33.773Z,5.90
2018-08-28T17:23:03.671Z,5.50
2018-08-28T17:25:33.398Z,5.20
2018-08-28T17:28:03.097Z,5.67
2018-08-28T17:30:34.063Z,5.60
2018-08-28T17:33:04.465Z,7.23
2018-08-28T17:35:34.151Z,7.03
2018-08-28T17:38:04.683Z,6.50
2018-08-28T17:40:34.650Z,6.33
2018-08-28T17:43:04.468Z,7.03
2018-08-28T17:45:34.487Z,7.97
2018-08-28T17:48:06.999Z,6.23
2018-08-28T17:50:37.823Z,6.97
2018-08-28T17:53:07.922Z,7.87
2018-08-28T17:55:38.092Z,7.03
2018-08-28T17:58:07.874Z,7.07
2018-08-28T18:00:37.616Z,6.23
2018-08-28T18:03:07.340Z,5.97
2018-08-28T18:05:37.568Z,7.53
2018-08-28T18:08:07.572Z,7.53
2018-08-28T18:10:37.695Z,6.73
2018-08-28T18:13:08.385Z,7.33
2018-08-28T18:15:38.585Z,7.87
2018-08-28T18:18:08.806Z,7.20
2018-08-28T18:20:38.540Z,8.57
2018-08-28T18:23:08.180Z,8.20
2018-08-28T18:25:38.151Z,8.03
2018-08-28T18:28:08.130Z,9.23
2018-08-28T18:30:38.114Z,10.63
2018-08-28T18:33:08.241Z,11.03
2018-08-28T18:35:38.024Z,10.27
2018-08-28T18:38:07.731Z,10.50
2018-08-28T18:40:37.847Z,12.60
2018-08-28T18:43:07.623Z,12.00
2018-08-28T18:45:37.796Z,11.53
2018-08-28T18:48:07.716Z,11.40
2018-08-28T18:50:38.963Z,11.20
2018-08-28T18:53:08.945Z,12.03
2018-08-28T18:55:38.739Z,11.13
2018-08-28T18:58:09.241Z,11.23
2018-08-28T19:00:39.261Z,12.67
2018-08-28T19:03:09.112Z,13.20
2018-08-28T19:05:39.007Z,13.30
2018-08-28T19:08:09.147Z,12.87
2018-08-28T19:10:39.167Z,12.67
2018-08-28T19:13:09.257Z,11.80
2018-08-28T19:15:39.199Z,12.80
2018-08-28T19:18:08.934Z,24.37
2018-08-28T19:20:38.787Z,36.23
2018-08-28T19:23:14.618Z,84.30
2018-08-28T19:25:44.477Z,99.43
2018-08-28T19:28:14.487Z,71.97
2018-08-28T19:30:44.355Z,54.80
2018-08-28T19:33:14.577Z,41.10
2018-08-28T19:35:44.675Z,30.13
2018-08-28T19:38:14.593Z,25.97
2018-08-28T19:40:44.715Z,39.70
2018-08-28T19:43:14.693Z,70.43
2018-08-28T19:45:49.195Z,142.93
2018-08-28T19:48:20.984Z,171.53
2018-08-28T19:50:50.829Z,315.37
2018-08-28T19:53:21.730Z,310.60
2018-08-28T19:55:57.195Z,334.57
2018-08-28T19:58:27.063Z,300.43
2018-08-28T20:00:57.076Z,176.50
2018-08-28T20:03:26.781Z,142.83
2018-08-28T20:05:56.537Z,120.07
2018-08-28T20:08:26.344Z,93.30
2018-08-28T20:10:56.093Z,84.30
2018-08-28T20:13:25.935Z,59.03
2018-08-28T20:15:55.771Z,58.70
2018-08-28T20:18:25.461Z,53.13
2018-08-28T20:20:55.356Z,39.73
2018-08-28T20:23:25.269Z,37.00
2018-08-28T20:25:54.993Z,26.57
2018-08-28T20:28:25.515Z,22.83
2018-08-28T20:30:55.387Z,18.80
2018-08-28T20:33:25.500Z,18.63
2018-08-28T20:35:56.403Z,16.10
2018-08-28T20:38:26.438Z,14.93
2018-08-28T20:40:56.438Z,16.00
2018-08-28T20:43:26.306Z,15.23
2018-08-28T20:45:56.172Z,14.43
2018-08-28T20:48:26.116Z,14.50
2018-08-28T20:50:56.032Z,15.43
2018-08-28T20:53:25.922Z,14.77
2018-08-28T20:55:55.806Z,14.83
2018-08-28T20:58:25.820Z,14.17
2018-08-28T21:00:55.840Z,12.47
2018-08-28T21:03:26.064Z,13.43
2018-08-28T21:05:55.904Z,14.57
2018-08-28T21:08:25.978Z,15.17
2018-08-28T21:10:55.814Z,14.67
2018-08-28T21:13:40.342Z,13.73
2018-08-28T21:16:10.059Z,14.43
2018-08-28T21:18:39.896Z,15.13
2018-08-28T21:21:09.869Z,13.67
2018-08-28T21:23:39.858Z,15.83
2018-08-28T21:26:09.711Z,14.57
2018-08-28T21:28:39.595Z,14.57
2018-08-28T21:31:09.390Z,15.50
2018-08-28T21:33:39.148Z,16.33
2018-08-28T21:36:21.227Z,14.80
2018-08-28T21:38:50.976Z,13.90
2018-08-28T21:41:21.083Z,14.13
2018-08-28T21:43:50.748Z,13.90
2018-08-28T21:46:20.331Z,13.13
2018-08-28T21:48:50.117Z,13.30
2018-08-28T21:51:19.847Z,15.07
2018-08-28T21:53:49.540Z,15.13
2018-08-28T21:56:19.284Z,15.60
2018-08-28T21:58:48.969Z,19.10
2018-08-28T22:01:18.639Z,30.27
2018-08-28T22:03:48.338Z,34.17
2018-08-28T22:06:23.275Z,41.03
2018-08-28T22:08:52.924Z,39.97
2018-08-28T22:11:22.664Z,51.27
2018-08-28T22:13:52.475Z,52.13
2018-08-28T22:16:22.194Z,49.33
2018-08-28T22:18:51.862Z,40.50
2018-08-28T22:21:21.552Z,43.50
2018-08-28T22:23:51.258Z,36.73
2018-08-28T22:26:21.110Z,28.70
2018-08-28T22:28:50.770Z,34.27
2018-08-28T22:31:20.638Z,23.37
2018-08-28T22:33:50.428Z,21.53
2018-08-28T22:36:20.098Z,19.07
2018-08-28T22:38:49.830Z,17.07
2018-08-28T22:41:19.494Z,17.43
2018-08-28T22:43:49.352Z,16.33
2018-08-28T22:46:19.106Z,17.80
2018-08-28T22:48:48.823Z,16.63
2018-08-28T22:51:18.514Z,15.93
2018-08-28T22:53:48.224Z,17.67
2018-08-28T22:56:17.934Z,16.80
2018-08-28T22:58:47.602Z,15.30
2018-08-28T23:01:17.358Z,13.80
2018-08-28T23:03:47.070Z,14.20
2018-08-28T23:06:16.763Z,13.23
2018-08-28T23:08:46.488Z,13.57
2018-08-28T23:11:16.171Z,12.23
2018-08-28T23:13:45.909Z,12.43
2018-08-28T23:16:15.572Z,11.37
2018-08-28T23:18:45.358Z,12.43
2018-08-28T23:21:15.038Z,12.67
2018-08-28T23:23:44.768Z,10.33
2018-08-28T23:26:14.434Z,10.30
2018-08-28T23:28:44.307Z,10.13
2018-08-28T23:31:14.186Z,10.17
2018-08-28T23:33:43.811Z,11.90
2018-08-28T23:36:13.478Z,9.27
2018-08-28T23:38:43.267Z,11.33
2018-08-28T23:41:12.922Z,9.37
2018-08-28T23:43:42.690Z,11.47
2018-08-28T23:46:12.496Z,9.07
2018-08-28T23:48:42.090Z,10.13
2018-08-28T23:51:11.796Z,10.33
2018-08-28T23:53:41.478Z,9.30
2018-08-28T23:56:11.090Z,10.57
2018-08-28T23:58:40.726Z,10.27
